createdAt,value
2022-12-18T00:00:20.324Z,14.37
2022-12-18T00:03:03.541Z,13.47
2022-12-18T00:05:51.499Z,15.93
2022-12-18T00:08:34.892Z,14.80
2022-12-18T00:11:20.651Z,13.57
2022-12-18T00:14:05.126Z,13.10
2022-12-18T00:16:49.578Z,14.87
2022-12-18T00:19:32.636Z,13.93
2022-12-18T00:22:15.748Z,13.83
2022-12-18T00:24:58.821Z,15.30
2022-12-18T00:27:42.063Z,13.97
2022-12-18T00:30:26.629Z,14.47
2022-12-18T00:33:09.770Z,16.07
2022-12-18T00:35:52.869Z,14.87
2022-12-18T00:38:36.478Z,15.70
2022-12-18T00:41:34.553Z,15.47
2022-12-18T00:44:19.956Z,14.37
2022-12-18T00:47:04.530Z,15.37
2022-12-18T00:49:47.772Z,15.73
2022-12-18T00:52:30.990Z,15.77
2022-12-18T00:55:15.216Z,16.13
2022-12-18T00:57:58.399Z,14.50
2022-12-18T01:00:41.574Z,14.73
2022-12-18T01:03:26.564Z,13.23
2022-12-18T01:06:11.285Z,13.57
2022-12-18T01:08:54.439Z,15.37
2022-12-18T01:11:37.553Z,16.93
2022-12-18T01:14:20.683Z,14.93
2022-12-18T01:17:04.757Z,15.40
2022-12-18T01:19:49.939Z,14.43
2022-12-18T01:22:33.071Z,17.20
2022-12-18T01:25:16.693Z,16.27
2022-12-18T01:27:59.874Z,16.47
2022-12-18T01:30:42.998Z,15.33
2022-12-18T01:33:26.133Z,16.47
2022-12-18T01:36:11.189Z,13.70
2022-12-18T01:38:55.399Z,14.37
2022-12-18T01:41:52.921Z,15.67
2022-12-18T01:45:08.290Z,17.03
2022-12-18T01:47:54.841Z,16.77
2022-12-18T01:50:40.025Z,14.97
2022-12-18T01:53:25.950Z,17.30
2022-12-18T01:56:10.690Z,16.37
2022-12-18T01:58:59.424Z,21.20
2022-12-18T02:01:42.755Z,18.93
2022-12-18T02:04:31.305Z,19.33
2022-12-18T02:07:27.123Z,18.07
2022-12-18T02:10:19.151Z,17.20
2022-12-18T02:13:07.695Z,17.87
2022-12-18T02:16:00.695Z,15.90
2022-12-18T02:18:47.588Z,15.87
2022-12-18T02:21:40.847Z,17.33
2022-12-18T02:24:35.480Z,19.23
2022-12-18T02:27:21.366Z,16.97
2022-12-18T02:30:07.352Z,17.63
2022-12-18T02:32:53.595Z,17.57
2022-12-18T02:35:38.779Z,19.07
2022-12-18T02:38:22.375Z,19.20
2022-12-18T02:41:07.451Z,19.00
2022-12-18T02:43:59.481Z,18.77
2022-12-18T02:46:45.613Z,16.20
2022-12-18T02:49:38.317Z,16.50
2022-12-18T02:52:33.927Z,18.43
2022-12-18T02:55:28.622Z,18.00
2022-12-18T02:58:18.142Z,14.50
2022-12-18T03:01:09.686Z,18.20
2022-12-18T03:03:58.666Z,15.53
2022-12-18T03:06:44.611Z,15.80
2022-12-18T03:09:34.194Z,15.43
2022-12-18T03:12:28.551Z,14.33
2022-12-18T03:15:17.817Z,14.80
2022-12-18T03:18:07.288Z,18.33
2022-12-18T03:20:57.049Z,17.60
2022-12-18T03:23:45.713Z,18.73
2022-12-18T03:26:30.146Z,18.40
2022-12-18T03:29:19.143Z,15.70
2022-12-18T03:32:07.211Z,19.50
2022-12-18T03:34:56.093Z,17.37
2022-12-18T03:37:39.487Z,16.43
2022-12-18T03:40:29.121Z,21.27
2022-12-18T03:43:19.453Z,17.77
2022-12-18T03:46:07.631Z,20.53
2022-12-18T03:48:55.663Z,13.83
2022-12-18T03:51:45.661Z,17.97
2022-12-18T03:54:30.709Z,20.23
2022-12-18T03:57:20.596Z,18.23
2022-12-18T04:00:08.685Z,23.17
2022-12-18T04:02:55.095Z,16.53
2022-12-18T04:05:39.727Z,18.30
2022-12-18T04:08:25.817Z,16.30
2022-12-18T04:11:09.193Z,19.33
2022-12-18T04:13:52.319Z,16.77
2022-12-18T04:16:35.637Z,18.77
2022-12-18T04:19:18.891Z,19.60
2022-12-18T04:22:02.068Z,19.10
2022-12-18T04:24:47.169Z,17.80
2022-12-18T04:27:30.394Z,19.83
2022-12-18T04:30:14.084Z,21.23
2022-12-18T04:32:57.128Z,19.23
2022-12-18T04:35:41.396Z,20.13
2022-12-18T04:38:24.533Z,17.80
2022-12-18T04:41:09.411Z,25.70
2022-12-18T04:43:52.460Z,19.63
2022-12-18T04:46:35.710Z,19.93
2022-12-18T04:49:19.019Z,18.77
2022-12-18T04:52:02.121Z,21.17
2022-12-18T04:54:45.208Z,22.90
2022-12-18T04:57:30.091Z,23.60
2022-12-18T05:00:14.643Z,23.03
2022-12-18T05:02:57.815Z,25.17
2022-12-18T05:05:41.094Z,25.07
2022-12-18T05:08:24.162Z,26.57
2022-12-18T05:11:09.779Z,25.13
2022-12-18T05:13:55.050Z,23.77
2022-12-18T05:16:38.854Z,25.70
2022-12-18T05:19:21.938Z,23.97
2022-12-18T05:22:05.046Z,27.87
2022-12-18T05:24:48.150Z,25.37
2022-12-18T05:27:31.649Z,27.10
2022-12-18T05:30:17.361Z,27.97
2022-12-18T05:33:00.554Z,27.57
2022-12-18T05:35:43.707Z,25.97
2022-12-18T05:38:28.799Z,24.23
2022-12-18T05:41:12.345Z,26.43
2022-12-18T05:43:55.615Z,26.73
2022-12-18T05:46:43.196Z,27.73
2022-12-18T05:49:26.412Z,24.00
2022-12-18T05:52:09.983Z,24.23
2022-12-18T05:54:53.408Z,24.00
2022-12-18T05:57:36.500Z,30.90
2022-12-18T06:00:20.059Z,29.53
2022-12-18T06:03:04.849Z,27.20
2022-12-18T06:05:48.163Z,31.27
2022-12-18T06:08:31.234Z,28.23
2022-12-18T06:11:14.259Z,26.93
2022-12-18T06:14:00.152Z,25.20
2022-12-18T06:16:43.854Z,29.93
2022-12-18T06:19:28.345Z,29.93
2022-12-18T06:22:11.675Z,29.97
2022-12-18T06:24:54.780Z,30.43
2022-12-18T06:27:37.834Z,30.43
2022-12-18T06:30:21.052Z,30.60
2022-12-18T06:33:04.129Z,31.93
2022-12-18T06:35:48.699Z,29.37
2022-12-18T06:38:31.930Z,30.17
2022-12-18T06:41:16.824Z,29.60
2022-12-18T06:44:00.319Z,33.03
2022-12-18T06:46:43.517Z,25.80
2022-12-18T06:49:30.400Z,29.80
2022-12-18T06:52:17.923Z,32.40
2022-12-18T06:55:02.177Z,32.20
2022-12-18T06:57:45.271Z,31.83
2022-12-18T07:00:28.316Z,25.93
2022-12-18T07:03:11.877Z,30.70
2022-12-18T07:05:55.649Z,31.47
2022-12-18T07:08:40.096Z,33.03
2022-12-18T07:11:23.344Z,29.73
2022-12-18T07:14:06.820Z,29.07
2022-12-18T07:16:50.004Z,29.57
2022-12-18T07:19:33.326Z,29.10
2022-12-18T07:22:16.672Z,30.20
2022-12-18T07:25:01.223Z,31.17
2022-12-18T07:27:44.483Z,42.87
2022-12-18T07:30:28.289Z,29.60
2022-12-18T07:33:11.340Z,31.20
2022-12-18T07:35:54.457Z,34.10
2022-12-18T07:38:38.120Z,32.70
2022-12-18T07:41:22.815Z,35.17
2022-12-18T07:44:06.470Z,33.10
2022-12-18T07:46:50.006Z,28.27
2022-12-18T07:49:33.334Z,38.27
2022-12-18T07:52:18.429Z,34.40
2022-12-18T07:55:04.583Z,34.30
2022-12-18T07:57:51.271Z,34.87
2022-12-18T08:00:35.339Z,36.93
2022-12-18T08:03:18.576Z,35.77
2022-12-18T08:06:03.246Z,36.20
2022-12-18T08:08:46.437Z,40.47
2022-12-18T08:11:30.752Z,37.87
2022-12-18T08:14:16.881Z,43.03
2022-12-18T08:17:00.374Z,36.50
2022-12-18T08:19:43.545Z,35.53
2022-12-18T08:22:26.658Z,35.63
2022-12-18T08:25:10.816Z,43.30
2022-12-18T08:27:54.884Z,43.00
2022-12-18T08:30:41.877Z,37.47
2022-12-18T08:33:25.556Z,41.43
2022-12-18T08:36:10.288Z,37.73
2022-12-18T08:38:53.842Z,45.27
2022-12-18T08:41:37.252Z,42.37
2022-12-18T08:44:37.453Z,38.60
2022-12-18T08:47:22.111Z,33.23
2022-12-18T08:50:05.650Z,38.73
2022-12-18T08:52:50.100Z,43.40
2022-12-18T08:55:33.207Z,35.73
2022-12-18T08:58:16.365Z,42.73
2022-12-18T09:01:03.177Z,39.80
2022-12-18T09:03:49.162Z,38.93
2022-12-18T09:06:32.487Z,37.27
2022-12-18T09:09:15.607Z,34.87
2022-12-18T09:11:58.701Z,39.53
2022-12-18T09:14:41.766Z,37.93
2022-12-18T09:17:25.060Z,37.87
2022-12-18T09:20:10.843Z,37.07
2022-12-18T09:22:53.901Z,35.47
2022-12-18T09:25:38.299Z,37.07
2022-12-18T09:28:21.729Z,37.83
2022-12-18T09:31:08.796Z,39.40
2022-12-18T09:33:52.671Z,37.13
2022-12-18T09:36:37.234Z,40.00
2022-12-18T09:39:21.828Z,46.97
2022-12-18T09:42:08.113Z,39.43
2022-12-18T09:44:53.222Z,36.87
2022-12-18T09:47:40.391Z,36.33
2022-12-18T09:50:29.700Z,40.03
2022-12-18T09:53:20.729Z,36.53
2022-12-18T09:56:06.424Z,36.87
2022-12-18T09:58:56.991Z,42.17
2022-12-18T10:01:44.344Z,38.93
2022-12-18T10:04:32.862Z,40.93
2022-12-18T10:07:22.423Z,37.53
2022-12-18T10:10:17.142Z,34.73
2022-12-18T10:13:10.700Z,37.70
2022-12-18T10:16:16.451Z,39.90
2022-12-18T10:19:17.740Z,35.77
2022-12-18T10:22:10.886Z,34.80
2022-12-18T10:25:02.676Z,40.47
2022-12-18T10:27:47.460Z,35.70
2022-12-18T10:30:30.581Z,36.83
2022-12-18T10:33:19.296Z,37.33
2022-12-18T10:36:04.004Z,38.40
2022-12-18T10:38:47.789Z,36.13
2022-12-18T10:41:32.022Z,38.30
2022-12-18T10:44:21.355Z,41.33
2022-12-18T10:47:11.668Z,38.07
2022-12-18T10:49:57.247Z,40.83
2022-12-18T10:52:43.622Z,50.70
2022-12-18T10:55:34.984Z,43.63
2022-12-18T10:58:28.128Z,38.30
2022-12-18T11:01:16.702Z,39.87
2022-12-18T11:04:09.768Z,44.37
2022-12-18T11:07:02.086Z,34.83
2022-12-18T11:09:45.221Z,44.90
2022-12-18T11:12:31.092Z,44.93
2022-12-18T11:15:18.940Z,44.13
2022-12-18T11:18:03.762Z,40.53
2022-12-18T11:20:58.328Z,41.07
2022-12-18T11:23:50.672Z,41.90
2022-12-18T11:26:39.384Z,44.27
2022-12-18T11:29:30.638Z,35.63
2022-12-18T11:32:31.785Z,35.63
2022-12-18T11:35:21.890Z,41.93
2022-12-18T11:38:12.499Z,36.13
2022-12-18T11:41:01.327Z,34.20
2022-12-18T11:43:52.358Z,38.27
2022-12-18T11:46:40.270Z,36.40
2022-12-18T11:49:28.996Z,35.50
2022-12-18T11:52:21.154Z,33.17
2022-12-18T11:55:13.485Z,39.10
2022-12-18T11:58:06.253Z,36.07
2022-12-18T12:00:55.192Z,36.03
2022-12-18T12:04:17.764Z,35.97
2022-12-18T12:07:08.810Z,36.90
2022-12-18T12:10:07.703Z,36.03
2022-12-18T12:13:04.777Z,37.80
2022-12-18T12:16:00.332Z,36.17
2022-12-18T12:18:57.567Z,36.27
2022-12-18T12:21:43.155Z,35.10
2022-12-18T12:24:41.078Z,37.43
2022-12-18T12:27:36.871Z,35.30
2022-12-18T12:30:23.702Z,35.13
2022-12-18T12:33:26.673Z,39.63
2022-12-18T12:36:17.273Z,36.77
2022-12-18T12:39:03.454Z,38.63
2022-12-18T12:42:06.291Z,38.17
2022-12-18T12:44:56.194Z,42.43
2022-12-18T12:47:44.592Z,39.47
2022-12-18T12:50:32.282Z,38.83
2022-12-18T12:53:24.671Z,37.70
2022-12-18T12:56:10.841Z,37.50
2022-12-18T12:59:07.586Z,45.57
2022-12-18T13:01:56.984Z,40.30
2022-12-18T13:04:48.250Z,37.37
2022-12-18T13:07:38.319Z,38.87
2022-12-18T13:10:34.263Z,45.50
2022-12-18T13:13:23.747Z,37.97
2022-12-18T13:16:11.697Z,41.40
2022-12-18T13:18:58.945Z,35.93
2022-12-18T13:21:42.472Z,40.73
2022-12-18T13:24:28.620Z,37.63
2022-12-18T13:27:46.317Z,42.07
2022-12-18T13:30:51.732Z,40.63
2022-12-18T13:34:24.349Z,37.60
2022-12-18T13:36:52.323Z,42.10
2022-12-18T13:39:36.714Z,41.73
2022-12-18T13:43:01.316Z,39.80
2022-12-18T13:45:47.887Z,38.37
2022-12-18T13:48:35.226Z,40.10
2022-12-18T13:51:21.936Z,39.50
2022-12-18T13:54:18.061Z,39.47
2022-12-18T13:57:02.269Z,41.60
2022-12-18T13:59:45.525Z,35.70
2022-12-18T14:02:30.865Z,39.03
2022-12-18T14:05:24.727Z,40.13
2022-12-18T14:08:12.355Z,40.47
2022-12-18T14:10:58.792Z,39.43
2022-12-18T14:13:44.349Z,40.33
2022-12-18T14:16:28.102Z,44.27
2022-12-18T14:19:16.058Z,39.13
2022-12-18T14:21:59.150Z,47.93
2022-12-18T14:24:42.240Z,39.07
2022-12-18T14:27:28.499Z,39.17
2022-12-18T14:30:30.747Z,39.00
2022-12-18T14:33:16.276Z,40.93
2022-12-18T14:36:01.680Z,42.63
2022-12-18T14:38:44.969Z,40.30
2022-12-18T14:41:28.937Z,40.63
2022-12-18T14:44:15.628Z,43.00
2022-12-18T14:46:59.115Z,36.13
2022-12-18T14:49:45.110Z,51.93
2022-12-18T14:52:34.258Z,43.30
2022-12-18T14:55:18.961Z,41.43
2022-12-18T14:58:02.243Z,39.30
2022-12-18T15:00:46.981Z,36.03
2022-12-18T15:03:31.497Z,37.07
2022-12-18T15:06:20.523Z,38.43
2022-12-18T15:09:07.791Z,39.37
2022-12-18T15:11:51.590Z,39.00
2022-12-18T15:14:37.816Z,41.33
2022-12-18T15:17:26.118Z,41.90
2022-12-18T15:20:15.768Z,38.53
2022-12-18T15:22:59.316Z,42.57
2022-12-18T15:25:42.687Z,38.10
2022-12-18T15:28:28.855Z,39.50
2022-12-18T15:31:25.884Z,37.87
2022-12-18T15:34:26.384Z,38.23
2022-12-18T15:37:09.922Z,38.23
2022-12-18T15:39:53.046Z,40.67
2022-12-18T15:42:53.971Z,40.80
2022-12-18T15:45:37.210Z,35.63
2022-12-18T15:48:23.903Z,35.73
2022-12-18T15:51:16.108Z,38.10
2022-12-18T15:54:04.960Z,34.90
2022-12-18T15:57:05.623Z,34.87
2022-12-18T15:59:48.912Z,38.53
2022-12-18T16:02:32.212Z,38.43
2022-12-18T16:05:18.073Z,34.30
2022-12-18T16:08:02.859Z,38.63
2022-12-18T16:10:45.997Z,35.70
2022-12-18T16:13:29.500Z,34.03
2022-12-18T16:16:12.647Z,39.70
2022-12-18T16:18:55.839Z,37.23
2022-12-18T16:21:39.045Z,42.47
2022-12-18T16:24:24.829Z,36.63
2022-12-18T16:27:08.680Z,38.47
2022-12-18T16:29:52.353Z,44.50
2022-12-18T16:32:35.738Z,42.77
2022-12-18T16:35:19.323Z,47.13
2022-12-18T16:38:02.770Z,44.13
2022-12-18T16:41:01.413Z,41.27
2022-12-18T16:43:45.539Z,42.07
2022-12-18T16:46:31.272Z,36.07
2022-12-18T16:49:15.161Z,40.60
2022-12-18T16:51:58.567Z,37.13
2022-12-18T16:54:41.729Z,39.50
2022-12-18T16:57:26.573Z,39.33
2022-12-18T17:00:11.046Z,39.90
2022-12-18T17:02:54.927Z,38.90
2022-12-18T17:05:38.142Z,38.53
2022-12-18T17:08:21.494Z,39.43
2022-12-18T17:11:09.325Z,37.87
2022-12-18T17:13:54.090Z,39.77
2022-12-18T17:16:37.377Z,39.27
2022-12-18T17:19:22.893Z,36.63
2022-12-18T17:22:06.411Z,36.30
2022-12-18T17:24:49.675Z,36.50
2022-12-18T17:27:32.984Z,37.10
2022-12-18T17:30:17.643Z,38.23
2022-12-18T17:33:00.717Z,34.70
2022-12-18T17:35:44.158Z,35.57
2022-12-18T17:38:27.758Z,35.87
2022-12-18T17:41:12.802Z,37.90
2022-12-18T17:43:56.773Z,32.87
2022-12-18T17:46:41.380Z,38.13
2022-12-18T17:49:24.523Z,39.60
2022-12-18T17:52:08.059Z,36.70
2022-12-18T17:54:51.193Z,37.27
2022-12-18T17:57:34.411Z,37.20
2022-12-18T18:00:21.157Z,36.77
2022-12-18T18:03:05.922Z,39.57
2022-12-18T18:05:49.425Z,35.37
2022-12-18T18:08:33.367Z,43.90
2022-12-18T18:11:35.841Z,38.90
2022-12-18T18:14:21.469Z,39.50
2022-12-18T18:17:05.168Z,37.37
2022-12-18T18:19:49.940Z,37.77
2022-12-18T18:22:33.816Z,34.47
2022-12-18T18:25:17.204Z,38.37
2022-12-18T18:28:01.333Z,36.37
2022-12-18T18:30:44.412Z,39.60
2022-12-18T18:33:27.638Z,40.97
2022-12-18T18:36:13.217Z,41.93
2022-12-18T18:38:56.444Z,34.77
2022-12-18T18:41:40.043Z,42.60
2022-12-18T18:44:24.876Z,34.97
2022-12-18T18:47:09.572Z,36.30
2022-12-18T18:49:54.366Z,39.90
2022-12-18T18:52:39.925Z,38.50
2022-12-18T18:55:25.807Z,37.93
2022-12-18T18:58:15.179Z,41.63
2022-12-18T19:01:00.038Z,37.87
2022-12-18T19:03:44.470Z,37.13
2022-12-18T19:06:29.430Z,44.60
2022-12-18T19:09:14.885Z,37.17
2022-12-18T19:12:15.528Z,39.83
2022-12-18T19:14:58.676Z,37.23
2022-12-18T19:17:42.098Z,39.37
2022-12-18T19:20:28.729Z,40.80
2022-12-18T19:23:12.267Z,39.63
2022-12-18T19:26:17.016Z,44.63
2022-12-18T19:29:04.706Z,40.43
2022-12-18T19:31:48.132Z,38.80
2022-12-18T19:34:31.346Z,37.20
2022-12-18T19:37:14.841Z,44.83
2022-12-18T19:39:59.352Z,43.27
2022-12-18T19:42:46.989Z,41.53
2022-12-18T19:45:31.134Z,40.27
2022-12-18T19:48:14.502Z,39.50
2022-12-18T19:50:57.958Z,43.80
2022-12-18T19:53:41.115Z,43.83
2022-12-18T19:56:26.458Z,44.33
2022-12-18T19:59:11.361Z,42.43
2022-12-18T20:01:54.759Z,38.33
2022-12-18T20:04:39.881Z,46.53
2022-12-18T20:07:23.250Z,42.80
2022-12-18T20:10:09.192Z,41.17
2022-12-18T20:12:52.490Z,44.23
2022-12-18T20:15:43.483Z,46.00
2022-12-18T20:18:28.401Z,49.33
2022-12-18T20:21:14.032Z,44.03
2022-12-18T20:23:59.186Z,41.00
2022-12-18T20:26:42.512Z,42.30
2022-12-18T20:29:25.971Z,42.70
2022-12-18T20:32:10.601Z,39.07
2022-12-18T20:34:55.462Z,39.97
2022-12-18T20:37:39.610Z,45.47
2022-12-18T20:40:26.052Z,38.80
2022-12-18T20:43:12.477Z,48.90
2022-12-18T20:46:06.322Z,46.47
2022-12-18T20:48:51.583Z,44.00
2022-12-18T20:51:35.086Z,42.13
2022-12-18T20:54:21.346Z,43.30
2022-12-18T20:57:04.662Z,41.03
2022-12-18T20:59:48.465Z,48.53
2022-12-18T21:02:32.199Z,43.63
2022-12-18T21:05:18.180Z,47.27
2022-12-18T21:08:01.366Z,43.20
2022-12-18T21:10:44.477Z,42.60
2022-12-18T21:13:27.819Z,43.80
2022-12-18T21:16:12.833Z,44.33
2022-12-18T21:19:00.031Z,45.87
2022-12-18T21:21:47.437Z,45.80
2022-12-18T21:24:32.866Z,45.27
2022-12-18T21:27:18.046Z,43.43
2022-12-18T21:30:01.403Z,44.67
2022-12-18T21:32:44.706Z,44.83
2022-12-18T21:35:27.816Z,48.10
2022-12-18T21:38:15.957Z,44.53
2022-12-18T21:40:59.499Z,41.97
2022-12-18T21:43:59.835Z,40.70
2022-12-18T21:46:44.744Z,44.33
2022-12-18T21:49:28.227Z,47.80
2022-12-18T21:52:11.611Z,47.00
2022-12-18T21:54:56.152Z,47.33
2022-12-18T21:57:39.505Z,42.90
2022-12-18T22:00:23.231Z,42.70
2022-12-18T22:03:18.354Z,46.30
2022-12-18T22:06:09.303Z,45.73
2022-12-18T22:08:53.091Z,38.90
2022-12-18T22:11:37.998Z,49.73
2022-12-18T22:14:21.472Z,42.70
2022-12-18T22:17:04.956Z,42.87
2022-12-18T22:19:48.576Z,41.90
2022-12-18T22:22:32.314Z,44.70
2022-12-18T22:25:15.706Z,42.47
2022-12-18T22:28:17.964Z,40.53
2022-12-18T22:31:01.114Z,42.53
2022-12-18T22:33:44.475Z,49.13
2022-12-18T22:36:30.264Z,39.90
2022-12-18T22:39:16.663Z,38.30
2022-12-18T22:42:00.173Z,41.60
2022-12-18T22:44:47.920Z,39.20
2022-12-18T22:47:31.023Z,42.90
2022-12-18T22:50:14.961Z,41.57
2022-12-18T22:52:58.302Z,45.17
2022-12-18T22:55:41.641Z,44.47
2022-12-18T22:58:24.700Z,42.30
2022-12-18T23:01:18.721Z,42.37
2022-12-18T23:04:01.922Z,38.67
2022-12-18T23:06:45.909Z,45.00
2022-12-18T23:09:29.350Z,44.30
2022-12-18T23:12:17.733Z,41.07
2022-12-18T23:15:01.479Z,40.87
2022-12-18T23:17:46.116Z,44.07
2022-12-18T23:20:29.642Z,40.93
2022-12-18T23:23:12.668Z,44.80
2022-12-18T23:26:02.532Z,45.47
2022-12-18T23:28:45.829Z,40.77
2022-12-18T23:31:30.777Z,41.57
2022-12-18T23:34:20.432Z,41.80
2022-12-18T23:37:04.268Z,41.23
2022-12-18T23:39:47.331Z,42.57
2022-12-18T23:42:30.523Z,41.33
2022-12-18T23:45:18.075Z,40.80
2022-12-18T23:48:01.837Z,43.27
2022-12-18T23:50:46.415Z,42.47
2022-12-18T23:53:29.499Z,47.40
2022-12-18T23:56:13.917Z,47.93
2022-12-18T23:58:57.359Z,40.20
